sensor_id;sensor_type;location;lat;lon;timestamp;temperature;humidity
28193;DHT22;15473;50.840;3.396;2023-02-02T00:00:54;7.80;99.90
28193;DHT22;15473;50.840;3.396;2023-02-02T00:03:39;7.80;99.90
28193;DHT22;15473;50.840;3.396;2023-02-02T00:06:32;7.80;99.90
28193;DHT22;15473;50.840;3.396;2023-02-02T00:09:22;7.80;99.90
28193;DHT22;15473;50.840;3.396;2023-02-02T00:12:11;7.80;99.90
28193;DHT22;15473;50.840;3.396;2023-02-02T00:14:59;7.80;99.90
28193;DHT22;15473;50.840;3.396;2023-02-02T00:17:51;7.80;99.90
28193;DHT22;15473;50.840;3.396;2023-02-02T00:20:43;7.80;99.90
28193;DHT22;15473;50.840;3.396;2023-02-02T00:23:32;7.80;99.90
28193;DHT22;15473;50.840;3.396;2023-02-02T00:26:18;7.80;99.90
28193;DHT22;15473;50.840;3.396;2023-02-02T00:29:15;7.80;99.90
28193;DHT22;15473;50.840;3.396;2023-02-02T00:32:18;7.80;99.90
28193;DHT22;15473;50.840;3.396;2023-02-02T00:35:10;7.80;99.90
28193;DHT22;15473;50.840;3.396;2023-02-02T00:38:01;7.80;99.90
28193;DHT22;15473;50.840;3.396;2023-02-02T00:40:47;7.80;99.90
28193;DHT22;15473;50.840;3.396;2023-02-02T00:43:33;7.80;99.90
28193;DHT22;15473;50.840;3.396;2023-02-02T00:46:24;7.80;99.90
28193;DHT22;15473;50.840;3.396;2023-02-02T00:49:10;7.80;99.90
28193;DHT22;15473;50.840;3.396;2023-02-02T00:51:56;7.80;99.90
28193;DHT22;15473;50.840;3.396;2023-02-02T00:54:42;7.80;99.90
28193;DHT22;15473;50.840;3.396;2023-02-02T00:57:29;7.80;99.90
28193;DHT22;15473;50.840;3.396;2023-02-02T01:00:16;7.80;99.90
28193;DHT22;15473;50.840;3.396;2023-02-02T01:03:02;7.80;99.90
28193;DHT22;15473;50.840;3.396;2023-02-02T01:05:55;7.80;99.90
28193;DHT22;15473;50.840;3.396;2023-02-02T01:08:41;7.80;99.90
28193;DHT22;15473;50.840;3.396;2023-02-02T01:11:27;7.80;99.90
28193;DHT22;15473;50.840;3.396;2023-02-02T01:14:14;7.80;99.90
28193;DHT22;15473;50.840;3.396;2023-02-02T01:17:00;7.80;99.90
28193;DHT22;15473;50.840;3.396;2023-02-02T01:19:45;7.80;99.90
28193;DHT22;15473;50.840;3.396;2023-02-02T01:22:37;7.80;99.90
28193;DHT22;15473;50.840;3.396;2023-02-02T01:25:29;7.80;99.90
28193;DHT22;15473;50.840;3.396;2023-02-02T01:28:23;7.80;99.90
28193;DHT22;15473;50.840;3.396;2023-02-02T01:31:14;7.80;99.90
28193;DHT22;15473;50.840;3.396;2023-02-02T01:34:00;7.80;99.90
28193;DHT22;15473;50.840;3.396;2023-02-02T01:36:48;7.80;99.90
28193;DHT22;15473;50.840;3.396;2023-02-02T01:39:35;7.80;99.90
28193;DHT22;15473;50.840;3.396;2023-02-02T01:42:21;7.80;99.90
28193;DHT22;15473;50.840;3.396;2023-02-02T01:45:26;7.80;99.90
28193;DHT22;15473;50.840;3.396;2023-02-02T01:48:14;7.70;99.90
28193;DHT22;15473;50.840;3.396;2023-02-02T01:51:03;7.70;99.90
28193;DHT22;15473;50.840;3.396;2023-02-02T01:53:55;7.70;99.90
28193;DHT22;15473;50.840;3.396;2023-02-02T01:56:43;7.70;99.90
28193;DHT22;15473;50.840;3.396;2023-02-02T01:59:28;7.70;99.90
28193;DHT22;15473;50.840;3.396;2023-02-02T02:02:20;7.70;99.90
28193;DHT22;15473;50.840;3.396;2023-02-02T02:05:07;7.70;99.90
28193;DHT22;15473;50.840;3.396;2023-02-02T02:07:55;7.70;99.90
28193;DHT22;15473;50.840;3.396;2023-02-02T02:10:43;7.70;99.90
28193;DHT22;15473;50.840;3.396;2023-02-02T02:13:29;7.70;99.90
28193;DHT22;15473;50.840;3.396;2023-02-02T02:16:45;7.70;99.90
28193;DHT22;15473;50.840;3.396;2023-02-02T02:22:18;7.70;99.90
28193;DHT22;15473;50.840;3.396;2023-02-02T02:25:36;7.70;99.90
28193;DHT22;15473;50.840;3.396;2023-02-02T02:37:56;7.70;99.90
28193;DHT22;15473;50.840;3.396;2023-02-02T02:40:52;7.70;99.90
28193;DHT22;15473;50.840;3.396;2023-02-02T02:43:39;7.70;99.90
28193;DHT22;15473;50.840;3.396;2023-02-02T02:46:27;7.70;99.90
28193;DHT22;15473;50.840;3.396;2023-02-02T02:49:13;7.70;99.90
28193;DHT22;15473;50.840;3.396;2023-02-02T02:52:00;7.60;99.90
28193;DHT22;15473;50.840;3.396;2023-02-02T02:54:46;7.70;99.90
28193;DHT22;15473;50.840;3.396;2023-02-02T02:57:39;7.70;99.90
28193;DHT22;15473;50.840;3.396;2023-02-02T03:00:33;7.70;99.90
28193;DHT22;15473;50.840;3.396;2023-02-02T03:09:18;7.70;99.90
28193;DHT22;15473;50.840;3.396;2023-02-02T03:12:11;7.60;99.90
28193;DHT22;15473;50.840;3.396;2023-02-02T03:14:57;7.60;99.90
28193;DHT22;15473;50.840;3.396;2023-02-02T03:17:43;7.60;99.90
28193;DHT22;15473;50.840;3.396;2023-02-02T03:20:32;7.60;99.90
28193;DHT22;15473;50.840;3.396;2023-02-02T03:23:24;7.60;99.90
28193;DHT22;15473;50.840;3.396;2023-02-02T03:26:10;7.60;99.90
28193;DHT22;15473;50.840;3.396;2023-02-02T03:29:02;7.60;99.90
28193;DHT22;15473;50.840;3.396;2023-02-02T03:31:48;7.60;99.90
28193;DHT22;15473;50.840;3.396;2023-02-02T03:34:34;7.60;99.90
28193;DHT22;15473;50.840;3.396;2023-02-02T03:37:21;7.60;99.90
28193;DHT22;15473;50.840;3.396;2023-02-02T03:40:07;7.60;99.90
28193;DHT22;15473;50.840;3.396;2023-02-02T03:42:54;7.60;99.90
28193;DHT22;15473;50.840;3.396;2023-02-02T03:45:46;7.60;99.90
28193;DHT22;15473;50.840;3.396;2023-02-02T03:48:45;7.60;99.90
28193;DHT22;15473;50.840;3.396;2023-02-02T03:51:31;7.60;99.90
28193;DHT22;15473;50.840;3.396;2023-02-02T03:54:20;7.60;99.90
28193;DHT22;15473;50.840;3.396;2023-02-02T03:57:12;7.50;99.90
28193;DHT22;15473;50.840;3.396;2023-02-02T03:59:58;7.50;99.90
28193;DHT22;15473;50.840;3.396;2023-02-02T04:02:45;7.50;99.90
28193;DHT22;15473;50.840;3.396;2023-02-02T04:05:32;7.50;99.90
28193;DHT22;15473;50.840;3.396;2023-02-02T04:08:18;7.50;99.90
28193;DHT22;15473;50.840;3.396;2023-02-02T04:11:10;7.50;99.90
28193;DHT22;15473;50.840;3.396;2023-02-02T04:14:00;7.50;99.90
28193;DHT22;15473;50.840;3.396;2023-02-02T04:16:46;7.50;99.90
28193;DHT22;15473;50.840;3.396;2023-02-02T04:19:33;7.50;99.90
28193;DHT22;15473;50.840;3.396;2023-02-02T04:22:25;7.50;99.90
28193;DHT22;15473;50.840;3.396;2023-02-02T04:25:11;7.50;99.90
28193;DHT22;15473;50.840;3.396;2023-02-02T04:28:02;7.50;99.90
28193;DHT22;15473;50.840;3.396;2023-02-02T04:30:54;7.50;99.90
28193;DHT22;15473;50.840;3.396;2023-02-02T04:33:46;7.50;99.90
28193;DHT22;15473;50.840;3.396;2023-02-02T04:36:32;7.50;99.90
28193;DHT22;15473;50.840;3.396;2023-02-02T04:39:18;7.50;99.90
28193;DHT22;15473;50.840;3.396;2023-02-02T04:42:03;7.50;99.90
28193;DHT22;15473;50.840;3.396;2023-02-02T04:44:49;7.50;99.90
28193;DHT22;15473;50.840;3.396;2023-02-02T04:47:38;7.50;99.90
28193;DHT22;15473;50.840;3.396;2023-02-02T04:50:35;7.50;99.90
28193;DHT22;15473;50.840;3.396;2023-02-02T04:53:21;7.50;99.90
28193;DHT22;15473;50.840;3.396;2023-02-02T04:56:15;7.50;99.90
28193;DHT22;15473;50.840;3.396;2023-02-02T04:59:03;7.50;99.90
28193;DHT22;15473;50.840;3.396;2023-02-02T05:01:52;7.50;99.90
28193;DHT22;15473;50.840;3.396;2023-02-02T05:04:38;7.50;99.90
28193;DHT22;15473;50.840;3.396;2023-02-02T05:07:31;7.50;99.90
28193;DHT22;15473;50.840;3.396;2023-02-02T05:10:16;7.50;99.90
28193;DHT22;15473;50.840;3.396;2023-02-02T05:13:02;7.50;99.90
28193;DHT22;15473;50.840;3.396;2023-02-02T05:15:48;7.50;99.90
28193;DHT22;15473;50.840;3.396;2023-02-02T05:18:41;7.50;99.90
28193;DHT22;15473;50.840;3.396;2023-02-02T05:21:26;7.50;99.90
28193;DHT22;15473;50.840;3.396;2023-02-02T05:24:14;7.50;99.90
28193;DHT22;15473;50.840;3.396;2023-02-02T05:27:00;7.50;99.90
28193;DHT22;15473;50.840;3.396;2023-02-02T05:29:49;7.50;99.90
28193;DHT22;15473;50.840;3.396;2023-02-02T05:32:34;7.50;99.90
28193;DHT22;15473;50.840;3.396;2023-02-02T05:35:20;7.40;99.90
28193;DHT22;15473;50.840;3.396;2023-02-02T05:38:10;7.40;99.90
28193;DHT22;15473;50.840;3.396;2023-02-02T05:41:02;7.40;99.90
28193;DHT22;15473;50.840;3.396;2023-02-02T05:43:48;7.40;99.90
28193;DHT22;15473;50.840;3.396;2023-02-02T05:46:40;7.40;99.90
28193;DHT22;15473;50.840;3.396;2023-02-02T05:49:26;7.40;99.90
28193;DHT22;15473;50.840;3.396;2023-02-02T05:52:15;7.40;99.90
28193;DHT22;15473;50.840;3.396;2023-02-02T05:55:01;7.40;99.90
28193;DHT22;15473;50.840;3.396;2023-02-02T05:57:47;7.30;99.90
28193;DHT22;15473;50.840;3.396;2023-02-02T06:00:35;7.40;99.90
28193;DHT22;15473;50.840;3.396;2023-02-02T06:03:28;7.30;99.90
28193;DHT22;15473;50.840;3.396;2023-02-02T06:06:14;7.30;99.90
28193;DHT22;15473;50.840;3.396;2023-02-02T06:09:00;7.30;99.90
28193;DHT22;15473;50.840;3.396;2023-02-02T06:11:46;7.30;99.90
28193;DHT22;15473;50.840;3.396;2023-02-02T06:14:38;7.30;99.90
28193;DHT22;15473;50.840;3.396;2023-02-02T06:17:26;7.30;99.90
28193;DHT22;15473;50.840;3.396;2023-02-02T06:20:12;7.30;99.90
28193;DHT22;15473;50.840;3.396;2023-02-02T06:23:04;7.30;99.90
28193;DHT22;15473;50.840;3.396;2023-02-02T06:25:50;7.40;99.90
28193;DHT22;15473;50.840;3.396;2023-02-02T06:28:47;7.30;99.90
28193;DHT22;15473;50.840;3.396;2023-02-02T06:31:36;7.30;99.90
28193;DHT22;15473;50.840;3.396;2023-02-02T06:34:28;7.30;99.90
28193;DHT22;15473;50.840;3.396;2023-02-02T06:37:21;7.30;99.90
28193;DHT22;15473;50.840;3.396;2023-02-02T06:40:08;7.30;99.90
28193;DHT22;15473;50.840;3.396;2023-02-02T06:42:55;7.30;99.90
28193;DHT22;15473;50.840;3.396;2023-02-02T06:45:47;7.30;99.90
28193;DHT22;15473;50.840;3.396;2023-02-02T06:48:39;7.30;99.90
28193;DHT22;15473;50.840;3.396;2023-02-02T06:51:28;7.30;99.90
28193;DHT22;15473;50.840;3.396;2023-02-02T06:54:14;7.30;99.90
28193;DHT22;15473;50.840;3.396;2023-02-02T06:57:01;7.20;99.90
28193;DHT22;15473;50.840;3.396;2023-02-02T06:59:46;7.20;99.90
28193;DHT22;15473;50.840;3.396;2023-02-02T07:02:33;7.30;99.90
28193;DHT22;15473;50.840;3.396;2023-02-02T07:05:20;7.30;99.90
28193;DHT22;15473;50.840;3.396;2023-02-02T07:08:07;7.30;99.90
28193;DHT22;15473;50.840;3.396;2023-02-02T07:10:53;7.30;99.90
28193;DHT22;15473;50.840;3.396;2023-02-02T07:13:40;7.30;99.90
28193;DHT22;15473;50.840;3.396;2023-02-02T07:16:25;7.30;99.90
28193;DHT22;15473;50.840;3.396;2023-02-02T07:19:17;7.30;99.90
28193;DHT22;15473;50.840;3.396;2023-02-02T07:22:10;7.30;99.90
28193;DHT22;15473;50.840;3.396;2023-02-02T07:24:59;7.40;99.90
28193;DHT22;15473;50.840;3.396;2023-02-02T07:27:52;7.40;99.90
28193;DHT22;15473;50.840;3.396;2023-02-02T07:30:41;7.40;99.90
28193;DHT22;15473;50.840;3.396;2023-02-02T07:33:33;7.40;99.90
28193;DHT22;15473;50.840;3.396;2023-02-02T07:36:21;7.40;99.90
28193;DHT22;15473;50.840;3.396;2023-02-02T07:39:08;7.50;99.90
28193;DHT22;15473;50.840;3.396;2023-02-02T07:42:02;7.50;99.90
28193;DHT22;15473;50.840;3.396;2023-02-02T07:44:48;7.50;99.90
28193;DHT22;15473;50.840;3.396;2023-02-02T07:47:54;7.60;99.90
28193;DHT22;15473;50.840;3.396;2023-02-02T07:50:36;7.60;99.90
28193;DHT22;15473;50.840;3.396;2023-02-02T07:53:34;7.60;99.90
28193;DHT22;15473;50.840;3.396;2023-02-02T07:56:21;7.70;99.90
28193;DHT22;15473;50.840;3.396;2023-02-02T07:59:10;7.70;99.90
28193;DHT22;15473;50.840;3.396;2023-02-02T08:01:57;7.70;99.90
28193;DHT22;15473;50.840;3.396;2023-02-02T08:04:43;7.70;99.90
28193;DHT22;15473;50.840;3.396;2023-02-02T08:07:37;7.80;99.90
28193;DHT22;15473;50.840;3.396;2023-02-02T08:10:30;7.90;99.90
28193;DHT22;15473;50.840;3.396;2023-02-02T08:13:17;8.00;99.90
28193;DHT22;15473;50.840;3.396;2023-02-02T08:19:11;8.10;99.90
28193;DHT22;15473;50.840;3.396;2023-02-02T08:22:12;8.10;99.90
28193;DHT22;15473;50.840;3.396;2023-02-02T08:24:59;8.10;99.90
28193;DHT22;15473;50.840;3.396;2023-02-02T08:27:54;8.20;99.90
28193;DHT22;15473;50.840;3.396;2023-02-02T08:30:42;8.30;99.90
28193;DHT22;15473;50.840;3.396;2023-02-02T08:33:28;8.30;99.90
28193;DHT22;15473;50.840;3.396;2023-02-02T08:36:14;8.40;99.90
28193;DHT22;15473;50.840;3.396;2023-02-02T08:39:09;8.50;99.90
28193;DHT22;15473;50.840;3.396;2023-02-02T08:41:57;8.60;99.90
28193;DHT22;15473;50.840;3.396;2023-02-02T08:44:49;8.70;99.90
28193;DHT22;15473;50.840;3.396;2023-02-02T08:47:41;8.80;99.90
28193;DHT22;15473;50.840;3.396;2023-02-02T08:50:28;8.90;99.90
28193;DHT22;15473;50.840;3.396;2023-02-02T08:53:14;9.00;99.90
28193;DHT22;15473;50.840;3.396;2023-02-02T08:56:05;9.10;99.90
28193;DHT22;15473;50.840;3.396;2023-02-02T08:58:55;9.20;99.90
28193;DHT22;15473;50.840;3.396;2023-02-02T09:01:52;9.30;99.90
28193;DHT22;15473;50.840;3.396;2023-02-02T09:04:40;9.40;99.90
28193;DHT22;15473;50.840;3.396;2023-02-02T09:07:33;9.50;99.90
28193;DHT22;15473;50.840;3.396;2023-02-02T09:10:20;9.60;99.90
28193;DHT22;15473;50.840;3.396;2023-02-02T09:13:05;9.70;99.90
28193;DHT22;15473;50.840;3.396;2023-02-02T09:15:51;9.90;99.90
28193;DHT22;15473;50.840;3.396;2023-02-02T09:18:39;10.00;99.90
28193;DHT22;15473;50.840;3.396;2023-02-02T09:21:27;10.20;99.90
28193;DHT22;15473;50.840;3.396;2023-02-02T09:24:13;10.20;99.90
28193;DHT22;15473;50.840;3.396;2023-02-02T09:26:59;10.40;99.90
28193;DHT22;15473;50.840;3.396;2023-02-02T09:29:44;10.50;99.90
28193;DHT22;15473;50.840;3.396;2023-02-02T09:32:37;10.60;99.90
28193;DHT22;15473;50.840;3.396;2023-02-02T09:35:23;10.70;99.90
28193;DHT22;15473;50.840;3.396;2023-02-02T09:38:16;10.80;99.90
28193;DHT22;15473;50.840;3.396;2023-02-02T09:41:29;10.90;99.90
28193;DHT22;15473;50.840;3.396;2023-02-02T09:50:01;11.20;99.90
28193;DHT22;15473;50.840;3.396;2023-02-02T09:55:48;11.30;99.90
28193;DHT22;15473;50.840;3.396;2023-02-02T09:58:53;11.50;99.90
28193;DHT22;15473;50.840;3.396;2023-02-02T10:01:37;11.50;99.90
28193;DHT22;15473;50.840;3.396;2023-02-02T10:04:37;11.60;99.90
28193;DHT22;15473;50.840;3.396;2023-02-02T10:07:26;11.60;99.90
28193;DHT22;15473;50.840;3.396;2023-02-02T10:10:16;11.70;99.90
28193;DHT22;15473;50.840;3.396;2023-02-02T10:13:10;11.90;99.90
28193;DHT22;15473;50.840;3.396;2023-02-02T10:16:06;11.90;99.90
28193;DHT22;15473;50.840;3.396;2023-02-02T10:19:04;12.00;99.90
28193;DHT22;15473;50.840;3.396;2023-02-02T10:21:50;12.00;99.90
28193;DHT22;15473;50.840;3.396;2023-02-02T10:24:34;11.80;99.90
28193;DHT22;15473;50.840;3.396;2023-02-02T10:27:24;11.70;99.90
28193;DHT22;15473;50.840;3.396;2023-02-02T10:30:17;11.60;99.90
28193;DHT22;15473;50.840;3.396;2023-02-02T10:33:05;11.60;99.90
28193;DHT22;15473;50.840;3.396;2023-02-02T10:36:02;11.60;99.90
28193;DHT22;15473;50.840;3.396;2023-02-02T10:47:38;12.10;99.90
28193;DHT22;15473;50.840;3.396;2023-02-02T10:50:29;12.30;99.90
28193;DHT22;15473;50.840;3.396;2023-02-02T10:53:15;12.40;99.90
28193;DHT22;15473;50.840;3.396;2023-02-02T10:56:08;12.50;99.90
28193;DHT22;15473;50.840;3.396;2023-02-02T10:59:03;12.60;99.90
28193;DHT22;15473;50.840;3.396;2023-02-02T11:01:44;12.70;99.90
28193;DHT22;15473;50.840;3.396;2023-02-02T11:04:36;12.90;99.90
28193;DHT22;15473;50.840;3.396;2023-02-02T11:07:47;13.00;99.90
28193;DHT22;15473;50.840;3.396;2023-02-02T11:10:33;13.40;99.90
28193;DHT22;15473;50.840;3.396;2023-02-02T11:13:32;13.90;99.90
28193;DHT22;15473;50.840;3.396;2023-02-02T11:16:30;14.70;99.90
28193;DHT22;15473;50.840;3.396;2023-02-02T11:22:22;16.80;99.90
28193;DHT22;15473;50.840;3.396;2023-02-02T11:25:03;20.40;99.90
28193;DHT22;15473;50.840;3.396;2023-02-02T11:27:51;23.40;99.90
28193;DHT22;15473;50.840;3.396;2023-02-02T11:30:45;22.60;99.90
28193;DHT22;15473;50.840;3.396;2023-02-02T11:33:36;22.60;99.90
28193;DHT22;15473;50.840;3.396;2023-02-02T11:36:21;21.70;99.90
28193;DHT22;15473;50.840;3.396;2023-02-02T11:39:15;21.30;99.90
28193;DHT22;15473;50.840;3.396;2023-02-02T11:42:03;21.50;99.90
28193;DHT22;15473;50.840;3.396;2023-02-02T11:44:57;23.60;99.90
28193;DHT22;15473;50.840;3.396;2023-02-02T11:47:49;25.60;99.90
28193;DHT22;15473;50.840;3.396;2023-02-02T11:50:45;27.20;99.90
28193;DHT22;15473;50.840;3.396;2023-02-02T11:53:43;27.80;99.90
28193;DHT22;15473;50.840;3.396;2023-02-02T11:56:28;28.40;99.90
28193;DHT22;15473;50.840;3.396;2023-02-02T11:59:36;28.70;99.90
28193;DHT22;15473;50.840;3.396;2023-02-02T12:02:28;27.80;99.90
28193;DHT22;15473;50.840;3.396;2023-02-02T12:08:11;25.20;99.90
28193;DHT22;15473;50.840;3.396;2023-02-02T12:10:59;22.50;99.90
28193;DHT22;15473;50.840;3.396;2023-02-02T12:14:02;20.00;99.90
28193;DHT22;15473;50.840;3.396;2023-02-02T12:16:54;18.20;99.90
28193;DHT22;15473;50.840;3.396;2023-02-02T12:19:47;16.90;99.90
28193;DHT22;15473;50.840;3.396;2023-02-02T12:25:59;15.50;99.90
28193;DHT22;15473;50.840;3.396;2023-02-02T12:35:01;14.60;99.90
28193;DHT22;15473;50.840;3.396;2023-02-02T12:37:49;14.40;99.90
28193;DHT22;15473;50.840;3.396;2023-02-02T12:40:40;14.30;99.90
28193;DHT22;15473;50.840;3.396;2023-02-02T12:46:31;14.00;99.90
28193;DHT22;15473;50.840;3.396;2023-02-02T12:49:31;13.90;99.90
28193;DHT22;15473;50.840;3.396;2023-02-02T12:55:20;14.40;99.90
28193;DHT22;15473;50.840;3.396;2023-02-02T13:04:18;14.50;99.90
28193;DHT22;15473;50.840;3.396;2023-02-02T13:13:03;14.10;99.90
28193;DHT22;15473;50.840;3.396;2023-02-02T13:15:50;14.10;99.90
28193;DHT22;15473;50.840;3.396;2023-02-02T13:18:38;14.10;99.90
28193;DHT22;15473;50.840;3.396;2023-02-02T13:21:30;14.10;99.90
28193;DHT22;15473;50.840;3.396;2023-02-02T13:24:20;14.00;99.90
28193;DHT22;15473;50.840;3.396;2023-02-02T13:27:08;14.00;99.90
28193;DHT22;15473;50.840;3.396;2023-02-02T13:29:55;13.90;99.90
28193;DHT22;15473;50.840;3.396;2023-02-02T13:32:42;13.80;99.90
28193;DHT22;15473;50.840;3.396;2023-02-02T13:35:44;13.60;99.90
28193;DHT22;15473;50.840;3.396;2023-02-02T13:38:36;13.50;99.90
28193;DHT22;15473;50.840;3.396;2023-02-02T13:41:30;13.40;99.90
28193;DHT22;15473;50.840;3.396;2023-02-02T13:44:19;13.40;99.90
28193;DHT22;15473;50.840;3.396;2023-02-02T13:47:25;13.50;99.90
28193;DHT22;15473;50.840;3.396;2023-02-02T13:50:29;13.50;99.90
28193;DHT22;15473;50.840;3.396;2023-02-02T13:53:36;13.40;99.90
28193;DHT22;15473;50.840;3.396;2023-02-02T13:56:34;13.50;99.90
28193;DHT22;15473;50.840;3.396;2023-02-02T13:59:23;13.20;99.90
28193;DHT22;15473;50.840;3.396;2023-02-02T14:02:08;13.20;99.90
28193;DHT22;15473;50.840;3.396;2023-02-02T14:04:54;13.00;99.90
28193;DHT22;15473;50.840;3.396;2023-02-02T14:07:46;12.90;99.90
28193;DHT22;15473;50.840;3.396;2023-02-02T14:10:43;12.80;99.90
28193;DHT22;15473;50.840;3.396;2023-02-02T14:13:42;12.80;99.90
28193;DHT22;15473;50.840;3.396;2023-02-02T14:16:53;12.70;99.90
28193;DHT22;15473;50.840;3.396;2023-02-02T14:19:51;12.80;99.90
28193;DHT22;15473;50.840;3.396;2023-02-02T14:22:44;12.90;99.90
28193;DHT22;15473;50.840;3.396;2023-02-02T14:28:38;13.10;99.90
28193;DHT22;15473;50.840;3.396;2023-02-02T14:31:29;13.10;99.90
28193;DHT22;15473;50.840;3.396;2023-02-02T14:34:24;13.20;99.90
28193;DHT22;15473;50.840;3.396;2023-02-02T14:40:32;13.30;99.90
28193;DHT22;15473;50.840;3.396;2023-02-02T14:43:20;13.20;99.90
28193;DHT22;15473;50.840;3.396;2023-02-02T14:46:32;13.30;99.90
28193;DHT22;15473;50.840;3.396;2023-02-02T14:49:26;13.20;99.90
28193;DHT22;15473;50.840;3.396;2023-02-02T14:52:19;13.10;99.90
28193;DHT22;15473;50.840;3.396;2023-02-02T14:55:18;13.10;99.90
28193;DHT22;15473;50.840;3.396;2023-02-02T14:58:01;13.10;99.90
28193;DHT22;15473;50.840;3.396;2023-02-02T15:00:53;13.00;99.90
28193;DHT22;15473;50.840;3.396;2023-02-02T15:03:46;12.90;99.90
28193;DHT22;15473;50.840;3.396;2023-02-02T15:15:15;12.70;99.90
28193;DHT22;15473;50.840;3.396;2023-02-02T15:18:05;12.60;99.90
28193;DHT22;15473;50.840;3.396;2023-02-02T15:20:58;12.60;99.90
28193;DHT22;15473;50.840;3.396;2023-02-02T15:23:49;12.50;99.90
28193;DHT22;15473;50.840;3.396;2023-02-02T15:26:42;12.50;99.90
28193;DHT22;15473;50.840;3.396;2023-02-02T15:29:36;12.40;99.90
28193;DHT22;15473;50.840;3.396;2023-02-02T15:32:28;12.40;99.90
28193;DHT22;15473;50.840;3.396;2023-02-02T15:35:22;12.40;99.90
28193;DHT22;15473;50.840;3.396;2023-02-02T15:38:03;12.30;99.90
28193;DHT22;15473;50.840;3.396;2023-02-02T15:40:50;12.20;99.90
28193;DHT22;15473;50.840;3.396;2023-02-02T15:43:49;12.00;99.90
28193;DHT22;15473;50.840;3.396;2023-02-02T15:46:39;11.90;99.90
28193;DHT22;15473;50.840;3.396;2023-02-02T15:49:35;11.80;99.90
28193;DHT22;15473;50.840;3.396;2023-02-02T15:55:22;11.60;99.90
28193;DHT22;15473;50.840;3.396;2023-02-02T15:58:23;11.50;99.90
28193;DHT22;15473;50.840;3.396;2023-02-02T16:01:16;11.40;99.90
28193;DHT22;15473;50.840;3.396;2023-02-02T16:07:00;11.20;99.90
28193;DHT22;15473;50.840;3.396;2023-02-02T16:09:48;11.20;99.90
28193;DHT22;15473;50.840;3.396;2023-02-02T16:12:40;11.00;99.90
28193;DHT22;15473;50.840;3.396;2023-02-02T16:15:27;10.90;99.90
28193;DHT22;15473;50.840;3.396;2023-02-02T16:18:19;10.80;99.90
28193;DHT22;15473;50.840;3.396;2023-02-02T16:21:07;10.60;99.90
28193;DHT22;15473;50.840;3.396;2023-02-02T16:23:58;10.50;99.90
28193;DHT22;15473;50.840;3.396;2023-02-02T16:26:44;10.40;99.90
28193;DHT22;15473;50.840;3.396;2023-02-02T16:29:31;10.30;99.90
28193;DHT22;15473;50.840;3.396;2023-02-02T16:32:33;10.20;99.90
28193;DHT22;15473;50.840;3.396;2023-02-02T16:35:34;10.00;99.90
28193;DHT22;15473;50.840;3.396;2023-02-02T16:38:23;9.90;99.90
28193;DHT22;15473;50.840;3.396;2023-02-02T16:41:35;9.80;99.90
28193;DHT22;15473;50.840;3.396;2023-02-02T16:44:40;9.80;99.90
28193;DHT22;15473;50.840;3.396;2023-02-02T16:47:30;9.70;99.90
28193;DHT22;15473;50.840;3.396;2023-02-02T16:50:24;9.60;99.90
28193;DHT22;15473;50.840;3.396;2023-02-02T16:53:19;9.60;99.90
28193;DHT22;15473;50.840;3.396;2023-02-02T16:56:01;9.50;99.90
28193;DHT22;15473;50.840;3.396;2023-02-02T16:58:49;9.40;99.90
28193;DHT22;15473;50.840;3.396;2023-02-02T17:01:39;9.30;99.90
28193;DHT22;15473;50.840;3.396;2023-02-02T17:04:26;9.20;99.90
28193;DHT22;15473;50.840;3.396;2023-02-02T17:07:13;9.10;99.90
28193;DHT22;15473;50.840;3.396;2023-02-02T17:12:58;9.00;99.90
28193;DHT22;15473;50.840;3.396;2023-02-02T17:15:51;9.00;99.90
28193;DHT22;15473;50.840;3.396;2023-02-02T17:18:37;9.00;99.90
28193;DHT22;15473;50.840;3.396;2023-02-02T17:21:29;8.90;99.90
28193;DHT22;15473;50.840;3.396;2023-02-02T17:24:18;8.90;99.90
28193;DHT22;15473;50.840;3.396;2023-02-02T17:27:12;8.80;99.90
28193;DHT22;15473;50.840;3.396;2023-02-02T17:29:59;8.80;99.90
28193;DHT22;15473;50.840;3.396;2023-02-02T17:32:47;8.80;99.90
28193;DHT22;15473;50.840;3.396;2023-02-02T17:35:39;8.80;99.90
28193;DHT22;15473;50.840;3.396;2023-02-02T17:38:31;8.80;99.90
28193;DHT22;15473;50.840;3.396;2023-02-02T17:41:24;8.70;99.90
28193;DHT22;15473;50.840;3.396;2023-02-02T17:44:12;8.70;99.90
28193;DHT22;15473;50.840;3.396;2023-02-02T17:46:57;8.80;99.90
28193;DHT22;15473;50.840;3.396;2023-02-02T17:49:43;8.80;99.90
28193;DHT22;15473;50.840;3.396;2023-02-02T17:52:29;8.80;99.90
28193;DHT22;15473;50.840;3.396;2023-02-02T17:55:22;8.80;99.90
28193;DHT22;15473;50.840;3.396;2023-02-02T17:58:09;8.80;99.90
28193;DHT22;15473;50.840;3.396;2023-02-02T18:00:56;8.90;99.90
28193;DHT22;15473;50.840;3.396;2023-02-02T18:03:45;8.80;99.90
28193;DHT22;15473;50.840;3.396;2023-02-02T18:06:35;8.90;99.90
28193;DHT22;15473;50.840;3.396;2023-02-02T18:09:22;8.90;99.90
28193;DHT22;15473;50.840;3.396;2023-02-02T18:12:07;8.90;99.90
28193;DHT22;15473;50.840;3.396;2023-02-02T18:15:03;8.90;99.90
28193;DHT22;15473;50.840;3.396;2023-02-02T18:17:57;8.90;99.90
28193;DHT22;15473;50.840;3.396;2023-02-02T18:20:49;8.90;99.90
28193;DHT22;15473;50.840;3.396;2023-02-02T18:23:35;8.90;99.90
28193;DHT22;15473;50.840;3.396;2023-02-02T18:26:21;8.90;99.90
28193;DHT22;15473;50.840;3.396;2023-02-02T18:29:07;8.90;99.90
28193;DHT22;15473;50.840;3.396;2023-02-02T18:31:52;8.90;99.90
28193;DHT22;15473;50.840;3.396;2023-02-02T18:34:38;8.90;99.90
28193;DHT22;15473;50.840;3.396;2023-02-02T18:37:24;8.90;99.90
28193;DHT22;15473;50.840;3.396;2023-02-02T18:40:16;8.90;99.90
28193;DHT22;15473;50.840;3.396;2023-02-02T18:43:03;8.90;99.90
28193;DHT22;15473;50.840;3.396;2023-02-02T18:45:58;8.90;99.90
28193;DHT22;15473;50.840;3.396;2023-02-02T18:48:44;8.90;99.90
28193;DHT22;15473;50.840;3.396;2023-02-02T18:51:37;8.90;99.90
28193;DHT22;15473;50.840;3.396;2023-02-02T18:54:23;8.90;99.90
28193;DHT22;15473;50.840;3.396;2023-02-02T18:57:09;8.90;99.90
28193;DHT22;15473;50.840;3.396;2023-02-02T18:59:56;8.90;99.90
28193;DHT22;15473;50.840;3.396;2023-02-02T19:02:45;8.90;99.90
28193;DHT22;15473;50.840;3.396;2023-02-02T19:05:38;8.90;99.90
28193;DHT22;15473;50.840;3.396;2023-02-02T19:08:48;8.90;99.90
28193;DHT22;15473;50.840;3.396;2023-02-02T19:11:41;8.90;99.90
28193;DHT22;15473;50.840;3.396;2023-02-02T19:14:30;8.90;99.90
28193;DHT22;15473;50.840;3.396;2023-02-02T19:17:36;8.90;99.90
28193;DHT22;15473;50.840;3.396;2023-02-02T19:20:23;8.90;99.90
28193;DHT22;15473;50.840;3.396;2023-02-02T19:23:16;8.90;99.90
28193;DHT22;15473;50.840;3.396;2023-02-02T19:26:07;8.90;99.90
28193;DHT22;15473;50.840;3.396;2023-02-02T19:28:53;8.90;99.90
28193;DHT22;15473;50.840;3.396;2023-02-02T19:31:57;8.90;99.90
28193;DHT22;15473;50.840;3.396;2023-02-02T19:34:43;8.90;99.90
28193;DHT22;15473;50.840;3.396;2023-02-02T19:37:29;8.90;99.90
28193;DHT22;15473;50.840;3.396;2023-02-02T19:40:20;8.90;99.90
28193;DHT22;15473;50.840;3.396;2023-02-02T19:46:00;8.90;99.90